createdAt,value
2022-09-21T00:01:26.308Z,100496.95
2022-09-21T00:03:55.772Z,100497.88
2022-09-21T00:06:24.341Z,100497.38
2022-09-21T00:08:51.328Z,100497.66
2022-09-21T00:11:21.253Z,100498.98
2022-09-21T00:13:51.421Z,100497.06
2022-09-21T00:16:18.115Z,100493.60
2022-09-21T00:18:44.736Z,100495.57
2022-09-21T00:21:13.994Z,100498.30
2022-09-21T00:23:43.055Z,100490.29
2022-09-21T00:26:26.258Z,100493.70
2022-09-21T00:28:55.343Z,100493.17
2022-09-21T00:31:22.744Z,100493.46
2022-09-21T00:33:50.606Z,100495.55
2022-09-21T00:36:19.926Z,100499.73
2022-09-21T00:38:57.135Z,100501.04
2022-09-21T00:41:25.189Z,100494.91
2022-09-21T00:44:22.751Z,100499.40
2022-09-21T00:46:54.164Z,100497.52
2022-09-21T00:49:21.802Z,100498.36
2022-09-21T00:51:52.893Z,100500.52
2022-09-21T00:54:26.633Z,100502.20
2022-09-21T00:56:55.112Z,100501.34
2022-09-21T00:59:24.775Z,100501.25
2022-09-21T01:01:54.510Z,100498.19
2022-09-21T01:04:22.269Z,100498.23
2022-09-21T01:06:49.797Z,100500.60
2022-09-21T01:09:18.376Z,100497.42
2022-09-21T01:12:10.948Z,100501.43
2022-09-21T01:14:50.977Z,100497.91
2022-09-21T01:17:31.443Z,100502.96
2022-09-21T01:20:10.797Z,100503.59
2022-09-21T01:23:02.874Z,100504.49
2022-09-21T01:26:02.935Z,100506.34
2022-09-21T01:28:57.189Z,100510.36
2022-09-21T01:31:28.283Z,100511.23
2022-09-21T01:34:02.060Z,100518.20
2022-09-21T01:36:31.043Z,100518.27
2022-09-21T01:39:05.667Z,100514.44
2022-09-21T01:41:34.954Z,100519.59
2022-09-21T01:44:10.021Z,100516.11
2022-09-21T01:46:37.668Z,100517.73
2022-09-21T01:49:12.671Z,100519.19
2022-09-21T01:51:51.713Z,100528.69
2022-09-21T01:54:23.755Z,100525.99
2022-09-21T01:57:18.675Z,100527.14
2022-09-21T01:59:48.929Z,100527.82
2022-09-21T02:02:51.668Z,100530.02
2022-09-21T02:05:37.286Z,100532.29
2022-09-21T02:08:07.024Z,100534.70
2022-09-21T02:10:49.339Z,100532.52
2022-09-21T02:13:18.076Z,100532.59
2022-09-21T02:16:11.893Z,100537.83
2022-09-21T02:19:10.388Z,100536.19
2022-09-21T02:21:56.995Z,100539.27
2022-09-21T02:24:40.393Z,100536.95
2022-09-21T02:27:21.664Z,100537.39
2022-09-21T02:30:13.607Z,100533.70
2022-09-21T02:33:02.677Z,100529.45
2022-09-21T02:35:42.922Z,100527.80
2022-09-21T02:38:31.308Z,100528.58
2022-09-21T02:41:13.307Z,100527.16
2022-09-21T02:43:52.433Z,100534.30
2022-09-21T02:46:25.766Z,100541.84
2022-09-21T02:49:02.073Z,100543.32
2022-09-21T02:51:36.620Z,100547.48
2022-09-21T02:54:06.259Z,100547.39
2022-09-21T02:56:34.424Z,100551.39
2022-09-21T02:59:04.088Z,100554.14
2022-09-21T03:01:34.314Z,100553.97
2022-09-21T03:04:02.034Z,100550.91
2022-09-21T03:06:28.790Z,100553.36
2022-09-21T03:08:57.131Z,100553.02
2022-09-21T03:11:24.022Z,100552.98
2022-09-21T03:13:50.923Z,100554.33
2022-09-21T03:16:18.068Z,100553.20
2022-09-21T03:18:44.934Z,100558.85
2022-09-21T03:21:12.493Z,100556.93
2022-09-21T03:23:40.286Z,100558.20
2022-09-21T03:26:08.180Z,100560.86
2022-09-21T03:28:35.193Z,100558.97
2022-09-21T03:31:02.066Z,100560.89
2022-09-21T03:33:28.873Z,100561.05
2022-09-21T03:35:55.489Z,100560.94
2022-09-21T03:38:22.152Z,100559.25
2022-09-21T03:40:50.201Z,100563.14
2022-09-21T03:43:17.509Z,100568.27
2022-09-21T03:45:44.605Z,100566.61
2022-09-21T03:48:12.411Z,100570.04
2022-09-21T03:50:39.468Z,100568.34
2022-09-21T03:53:07.048Z,100573.02
2022-09-21T03:55:34.326Z,100570.08
2022-09-21T03:58:01.748Z,100575.14
2022-09-21T04:00:29.040Z,100580.67
2022-09-21T04:02:56.572Z,100580.74
2022-09-21T04:05:23.398Z,100579.27
2022-09-21T04:07:50.139Z,100579.56
2022-09-21T04:10:20.921Z,100578.95
2022-09-21T04:12:47.634Z,100578.77
2022-09-21T04:15:18.954Z,100582.77
2022-09-21T04:17:50.477Z,100583.81
2022-09-21T04:20:17.484Z,100588.48
2022-09-21T04:22:44.946Z,100590.54
2022-09-21T04:25:12.574Z,100587.73
2022-09-21T04:27:39.896Z,100593.02
2022-09-21T04:30:07.953Z,100592.67
2022-09-21T04:32:34.595Z,100593.18
2022-09-21T04:35:01.393Z,100595.00
2022-09-21T04:37:27.948Z,100599.75
2022-09-21T04:39:54.865Z,100602.63
2022-09-21T04:42:21.489Z,100604.13
2022-09-21T04:44:48.216Z,100603.42
2022-09-21T04:47:14.869Z,100604.39
2022-09-21T04:49:41.529Z,100605.38
2022-09-21T04:52:08.164Z,100606.90
2022-09-21T04:54:34.857Z,100608.64
2022-09-21T04:57:01.501Z,100612.23
2022-09-21T04:59:28.067Z,100611.48
2022-09-21T05:01:54.754Z,100612.62
2022-09-21T05:04:21.344Z,100615.27
2022-09-21T05:06:47.939Z,100620.75
2022-09-21T05:09:34.735Z,100621.42
2022-09-21T05:12:02.578Z,100623.69
2022-09-21T05:14:29.271Z,100625.31
2022-09-21T05:16:55.986Z,100624.68
2022-09-21T05:19:23.098Z,100627.30
2022-09-21T05:21:49.694Z,100626.73
2022-09-21T05:24:16.263Z,100630.14
2022-09-21T05:26:42.940Z,100633.96
2022-09-21T05:29:09.883Z,100641.09
2022-09-21T05:31:45.103Z,100640.34
2022-09-21T05:34:41.294Z,100644.13
2022-09-21T05:37:26.255Z,100646.24
2022-09-21T05:39:53.127Z,100650.21
2022-09-21T05:42:19.933Z,100651.01
2022-09-21T05:44:48.878Z,100652.64
2022-09-21T05:47:33.568Z,100654.66
2022-09-21T05:50:05.399Z,100658.60
2022-09-21T05:52:43.493Z,100658.29
2022-09-21T05:55:12.847Z,100663.08
2022-09-21T05:58:19.266Z,100660.14
2022-09-21T06:01:00.531Z,100662.35
2022-09-21T06:03:28.984Z,100666.06
2022-09-21T06:05:58.917Z,100666.46
2022-09-21T06:08:26.222Z,100664.52
2022-09-21T06:10:58.373Z,100666.23
2022-09-21T06:13:26.312Z,100665.18
2022-09-21T06:15:53.250Z,100668.66
2022-09-21T06:18:20.232Z,100670.92
2022-09-21T06:20:47.164Z,100673.27
2022-09-21T06:23:14.438Z,100672.86
2022-09-21T06:25:41.224Z,100674.29
2022-09-21T06:28:11.104Z,100677.94
2022-09-21T06:30:41.481Z,100681.68
2022-09-21T06:33:09.258Z,100688.40
2022-09-21T06:35:37.054Z,100686.95
2022-09-21T06:38:08.167Z,100685.12
2022-09-21T06:40:36.962Z,100692.17
2022-09-21T06:43:04.894Z,100690.23
2022-09-21T06:45:31.795Z,100692.37
2022-09-21T06:47:59.099Z,100695.56
2022-09-21T06:50:26.103Z,100692.41
2022-09-21T06:52:52.717Z,100694.14
2022-09-21T06:55:19.677Z,100697.06
2022-09-21T06:57:46.720Z,100701.79
2022-09-21T07:00:14.103Z,100702.77
2022-09-21T07:02:47.687Z,100708.77
2022-09-21T07:05:14.357Z,100708.16
2022-09-21T07:07:41.038Z,100709.52
2022-09-21T07:10:12.380Z,100709.73
2022-09-21T07:12:40.942Z,100712.00
2022-09-21T07:15:09.948Z,100717.17
2022-09-21T07:17:38.752Z,100716.67
2022-09-21T07:20:07.405Z,100717.57
2022-09-21T07:22:35.514Z,100720.67
2022-09-21T07:25:03.979Z,100715.49
2022-09-21T07:27:32.958Z,100716.08
2022-09-21T07:29:59.853Z,100719.48
2022-09-21T07:32:26.889Z,100722.31
2022-09-21T07:34:56.619Z,100726.36
2022-09-21T07:37:24.870Z,100722.12
2022-09-21T07:39:52.612Z,100726.64
2022-09-21T07:42:22.038Z,100728.40
2022-09-21T07:44:50.229Z,100725.71
2022-09-21T07:47:17.993Z,100727.13
2022-09-21T07:49:46.518Z,100726.40
2022-09-21T07:52:15.016Z,100733.11
2022-09-21T07:54:41.601Z,100732.85
2022-09-21T07:57:26.967Z,100732.73
2022-09-21T07:59:53.795Z,100735.86
2022-09-21T08:02:20.457Z,100733.64
2022-09-21T08:04:47.062Z,100734.59
2022-09-21T08:07:13.628Z,100733.80
2022-09-21T08:09:41.253Z,100734.27
2022-09-21T08:12:08.660Z,100740.83
2022-09-21T08:14:35.689Z,100745.55
2022-09-21T08:17:02.437Z,100748.11
2022-09-21T08:19:29.039Z,100748.02
2022-09-21T08:21:57.915Z,100755.94
2022-09-21T08:24:27.537Z,100754.41
2022-09-21T08:26:55.257Z,100754.31
2022-09-21T08:29:23.026Z,100755.77
2022-09-21T08:31:49.740Z,100754.86
2022-09-21T08:34:16.891Z,100753.17
2022-09-21T08:36:43.614Z,100753.02
2022-09-21T08:39:10.233Z,100756.38
2022-09-21T08:41:51.980Z,100757.78
2022-09-21T08:44:56.717Z,100761.91
2022-09-21T08:47:40.152Z,100764.10
2022-09-21T08:50:21.833Z,100764.15
2022-09-21T08:52:54.169Z,100765.42
2022-09-21T08:55:20.954Z,100763.70
2022-09-21T08:57:47.676Z,100761.13
2022-09-21T09:00:19.274Z,100761.23
2022-09-21T09:03:25.516Z,100762.07
2022-09-21T09:05:58.395Z,100763.92
2022-09-21T09:08:52.470Z,100765.56
2022-09-21T09:12:11.235Z,100767.61
2022-09-21T09:14:52.864Z,100764.42
2022-09-21T09:17:32.276Z,100767.65
2022-09-21T09:20:07.695Z,100765.66
2022-09-21T09:22:42.091Z,100765.60
2022-09-21T09:25:33.894Z,100766.05
2022-09-21T09:28:17.610Z,100767.42
2022-09-21T09:30:44.759Z,100759.34
2022-09-21T09:33:20.048Z,100767.18
2022-09-21T09:36:01.412Z,100763.30
2022-09-21T09:38:43.525Z,100765.62
2022-09-21T09:41:45.420Z,100765.63
2022-09-21T09:44:30.110Z,100763.02
2022-09-21T09:46:59.722Z,100765.58
2022-09-21T09:49:41.334Z,100762.83
2022-09-21T09:52:12.678Z,100766.58
2022-09-21T09:54:39.669Z,100760.27
2022-09-21T09:57:07.427Z,100760.67
2022-09-21T09:59:54.230Z,100766.65
2022-09-21T10:02:26.668Z,100760.52
2022-09-21T10:05:01.055Z,100761.10
2022-09-21T10:07:47.729Z,100760.35
2022-09-21T10:10:32.518Z,100763.20
2022-09-21T10:13:05.354Z,100768.43
2022-09-21T10:15:32.404Z,100767.31
2022-09-21T10:18:19.157Z,100765.40
2022-09-21T10:21:17.234Z,100764.45
2022-09-21T10:23:59.675Z,100763.55
2022-09-21T10:26:46.974Z,100767.46
2022-09-21T10:29:16.749Z,100765.40
2022-09-21T10:32:04.281Z,100770.41
2022-09-21T10:34:33.946Z,100773.68
2022-09-21T10:37:21.865Z,100777.33
2022-09-21T10:39:48.735Z,100779.44
2022-09-21T10:42:32.620Z,100775.65
2022-09-21T10:45:36.836Z,100769.64
2022-09-21T10:48:12.653Z,100770.60
2022-09-21T10:50:45.570Z,100769.84
2022-09-21T10:53:18.545Z,100762.38
2022-09-21T10:56:18.015Z,100761.99
2022-09-21T10:59:32.670Z,100762.24
2022-09-21T11:02:01.857Z,100763.55
2022-09-21T11:04:48.941Z,100764.55
2022-09-21T11:07:46.185Z,100763.17
2022-09-21T11:10:32.085Z,100763.40
2022-09-21T11:13:25.200Z,100764.88
2022-09-21T11:16:22.743Z,100771.05
2022-09-21T11:19:09.820Z,100775.25
2022-09-21T11:21:52.376Z,100774.45
2022-09-21T11:24:37.745Z,100767.92
2022-09-21T11:27:25.175Z,100764.66
2022-09-21T11:30:16.037Z,100768.77
2022-09-21T11:33:10.249Z,100769.44
2022-09-21T11:36:15.454Z,100767.89
2022-09-21T11:38:59.896Z,100763.42
2022-09-21T11:42:04.433Z,100765.30
2022-09-21T11:44:55.349Z,100755.64
2022-09-21T11:48:05.094Z,100754.34
2022-09-21T11:50:56.955Z,100749.58
2022-09-21T11:53:40.054Z,100751.86
2022-09-21T11:56:13.455Z,100754.09
2022-09-21T11:58:57.223Z,100755.99
2022-09-21T12:01:36.153Z,100759.91
2022-09-21T12:04:31.596Z,100759.52
2022-09-21T12:07:06.997Z,100762.35
2022-09-21T12:09:43.591Z,100762.66
2022-09-21T12:12:35.569Z,100761.16
2022-09-21T12:15:45.837Z,100762.84
2022-09-21T12:18:36.851Z,100755.66
2022-09-21T12:21:24.187Z,100752.50
2022-09-21T12:24:01.824Z,100748.52
2022-09-21T12:26:41.285Z,100740.13
2022-09-21T12:29:46.697Z,100734.48
2022-09-21T12:32:24.684Z,100735.73
2022-09-21T12:34:57.007Z,100733.27
2022-09-21T12:37:35.633Z,100731.16
2022-09-21T12:40:06.492Z,100734.02
2022-09-21T12:42:47.857Z,100731.60
2022-09-21T12:45:32.101Z,100728.85
2022-09-21T12:48:27.974Z,100723.85
2022-09-21T12:51:06.220Z,100728.59
2022-09-21T12:53:37.925Z,100727.45
2022-09-21T12:56:10.527Z,100727.39
2022-09-21T12:59:12.641Z,100732.98
2022-09-21T13:01:45.089Z,100728.36
2022-09-21T13:04:45.968Z,100728.51
2022-09-21T13:07:43.641Z,100721.67
2022-09-21T13:10:22.123Z,100721.30
2022-09-21T13:12:58.795Z,100716.66
2022-09-21T13:15:28.239Z,100721.69
2022-09-21T13:18:05.605Z,100722.17
2022-09-21T13:20:39.518Z,100722.75
2022-09-21T13:23:17.101Z,100724.89
2022-09-21T13:25:50.397Z,100723.63
2022-09-21T13:28:23.433Z,100725.48
2022-09-21T13:31:37.051Z,100726.73
2022-09-21T13:34:19.074Z,100728.88
2022-09-21T13:37:11.105Z,100736.18
2022-09-21T13:40:00.851Z,100739.11
2022-09-21T13:42:36.481Z,100735.30
2022-09-21T13:45:15.137Z,100737.92
2022-09-21T13:47:45.215Z,100734.83
2022-09-21T13:50:32.315Z,100736.02
2022-09-21T13:53:24.890Z,100730.50
2022-09-21T13:55:54.785Z,100725.80
2022-09-21T13:58:27.604Z,100731.85
2022-09-21T14:00:59.949Z,100733.60
2022-09-21T14:03:30.548Z,100730.15
2022-09-21T14:06:09.879Z,100730.31
2022-09-21T14:08:48.795Z,100719.60
2022-09-21T14:11:26.208Z,100720.52
2022-09-21T14:14:08.929Z,100720.91
2022-09-21T14:16:39.312Z,100723.25
2022-09-21T14:19:18.272Z,100725.52
2022-09-21T14:22:03.410Z,100733.19
2022-09-21T14:24:41.219Z,100732.23
2022-09-21T14:27:25.378Z,100738.17
2022-09-21T14:29:53.689Z,100740.13
2022-09-21T14:32:24.790Z,100737.80
2022-09-21T14:34:59.258Z,100741.92
2022-09-21T14:37:42.675Z,100750.34
2022-09-21T14:40:38.805Z,100749.52
2022-09-21T14:43:15.034Z,100747.54
2022-09-21T14:45:41.764Z,100749.94
2022-09-21T14:48:11.808Z,100754.02
2022-09-21T14:50:54.610Z,100751.49
2022-09-21T14:53:27.520Z,100758.98
2022-09-21T14:56:32.772Z,100757.34
2022-09-21T14:59:21.310Z,100748.13
2022-09-21T15:02:13.922Z,100741.27
2022-09-21T15:05:04.773Z,100737.27
2022-09-21T15:07:53.102Z,100733.86
2022-09-21T15:10:53.071Z,100734.83
2022-09-21T15:13:44.635Z,100725.29
2022-09-21T15:16:36.829Z,100727.77
2022-09-21T15:19:18.404Z,100726.70
2022-09-21T15:21:47.594Z,100726.15
2022-09-21T15:24:24.351Z,100723.57
2022-09-21T15:27:15.385Z,100723.63
2022-09-21T15:29:48.819Z,100718.77
2022-09-21T15:32:34.212Z,100722.85
2022-09-21T15:35:20.186Z,100728.34
2022-09-21T15:37:48.124Z,100732.21
2022-09-21T15:40:22.076Z,100729.68
2022-09-21T15:43:06.216Z,100739.28
2022-09-21T15:45:56.861Z,100736.55
2022-09-21T16:00:54.776Z,100733.15
2022-09-21T16:03:25.508Z,100743.08
2022-09-21T16:05:55.687Z,100757.92
2022-09-21T16:08:30.459Z,100759.60
2022-09-21T16:11:18.635Z,100757.59
2022-09-21T16:14:05.995Z,100759.36
2022-09-21T16:16:33.189Z,100761.85
2022-09-21T16:19:00.311Z,100765.63
2022-09-21T16:21:33.741Z,100761.32
2022-09-21T16:24:14.841Z,100758.14
2022-09-21T16:26:41.678Z,100757.52
2022-09-21T16:29:16.277Z,100760.48
2022-09-21T16:31:46.296Z,100764.73
2022-09-21T16:34:16.637Z,100767.30
2022-09-21T16:36:44.768Z,100770.16
2022-09-21T16:39:15.487Z,100767.94
2022-09-21T16:41:46.954Z,100770.80
2022-09-21T16:44:20.382Z,100772.09
2022-09-21T16:46:52.341Z,100774.00
2022-09-21T16:49:21.455Z,100769.73
2022-09-21T16:51:49.544Z,100773.18
2022-09-21T16:54:18.436Z,100770.44
2022-09-21T16:56:46.017Z,100776.83
2022-09-21T16:59:22.868Z,100777.77
2022-09-21T17:01:56.082Z,100781.13
2022-09-21T17:04:27.790Z,100782.95
2022-09-21T17:06:55.467Z,100784.52
2022-09-21T17:09:29.592Z,100781.80
2022-09-21T17:12:02.655Z,100781.80
2022-09-21T17:14:35.280Z,100781.40
2022-09-21T17:17:11.196Z,100784.67
2022-09-21T17:19:41.619Z,100783.17
2022-09-21T17:22:16.657Z,100785.16
2022-09-21T17:24:51.837Z,100788.40
2022-09-21T17:27:22.087Z,100792.40
2022-09-21T17:29:49.627Z,100791.50
2022-09-21T17:32:22.201Z,100794.37
2022-09-21T17:35:11.985Z,100800.74
2022-09-21T17:37:38.732Z,100802.30
2022-09-21T17:40:10.706Z,100800.79
2022-09-21T17:42:40.854Z,100803.36
2022-09-21T17:45:18.265Z,100801.86
2022-09-21T17:47:45.744Z,100801.48
2022-09-21T17:50:12.544Z,100802.48
2022-09-21T17:53:00.535Z,100802.91
2022-09-21T17:55:28.165Z,100805.25
2022-09-21T17:58:13.873Z,100809.01
2022-09-21T18:00:51.925Z,100805.69
2022-09-21T18:03:27.721Z,100808.23
2022-09-21T18:06:00.071Z,100807.81
2022-09-21T18:08:31.857Z,100810.97
2022-09-21T18:11:10.592Z,100812.83
2022-09-21T18:14:08.709Z,100813.81
2022-09-21T18:17:00.087Z,100814.64
2022-09-21T18:19:54.624Z,100815.52
2022-09-21T18:22:21.417Z,100814.67
2022-09-21T18:24:49.799Z,100819.71
2022-09-21T18:27:19.498Z,100815.70
2022-09-21T18:29:46.884Z,100815.94
2022-09-21T18:32:26.372Z,100817.35
2022-09-21T18:34:56.297Z,100819.72
2022-09-21T18:37:31.996Z,100822.95
2022-09-21T18:40:31.665Z,100821.03
2022-09-21T18:43:01.571Z,100821.17
2022-09-21T18:45:37.135Z,100825.52
2022-09-21T18:48:35.621Z,100823.67
2022-09-21T18:51:23.742Z,100828.09
2022-09-21T18:53:55.117Z,100829.91
2022-09-21T18:56:29.629Z,100823.80
2022-09-21T18:58:58.117Z,100819.69
2022-09-21T19:01:28.663Z,100823.23
2022-09-21T19:03:55.564Z,100818.77
2022-09-21T19:06:45.978Z,100821.81
2022-09-21T19:09:37.205Z,100823.83
2022-09-21T19:12:27.275Z,100825.26
2022-09-21T19:15:12.432Z,100822.53
2022-09-21T19:18:01.377Z,100825.77
2022-09-21T19:20:43.781Z,100827.95
2022-09-21T19:23:31.597Z,100827.05
2022-09-21T19:26:11.914Z,100826.05
2022-09-21T19:29:18.708Z,100825.73
2022-09-21T19:31:45.556Z,100824.82
2022-09-21T19:34:18.873Z,100824.55
2022-09-21T19:36:46.815Z,100826.31
2022-09-21T19:39:14.997Z,100821.51
2022-09-21T19:41:50.357Z,100821.11
2022-09-21T19:44:29.333Z,100819.48
2022-09-21T19:46:58.799Z,100821.08
2022-09-21T19:49:47.386Z,100819.40
2022-09-21T19:52:18.645Z,100818.58
2022-09-21T19:55:05.632Z,100817.73
2022-09-21T19:57:52.831Z,100819.11
2022-09-21T20:00:23.167Z,100820.40
2022-09-21T20:03:36.245Z,100818.66
2022-09-21T20:06:29.237Z,100816.69
2022-09-21T20:09:16.094Z,100817.39
2022-09-21T20:11:48.357Z,100818.23
2022-09-21T20:14:22.836Z,100819.12
2022-09-21T20:17:00.992Z,100816.89
2022-09-21T20:19:35.199Z,100823.02
2022-09-21T20:22:11.375Z,100824.73
2022-09-21T20:24:49.595Z,100826.83
2022-09-21T20:27:38.852Z,100825.34
2022-09-21T20:30:12.469Z,100824.72
2022-09-21T20:32:43.825Z,100824.25
2022-09-21T20:35:16.770Z,100826.73
2022-09-21T20:37:45.784Z,100826.14
2022-09-21T20:40:14.864Z,100827.02
2022-09-21T20:42:43.515Z,100825.38
2022-09-21T20:45:13.732Z,100828.98
2022-09-21T20:47:41.846Z,100824.53
2022-09-21T20:50:12.907Z,100824.20
2022-09-21T20:52:43.020Z,100823.38
2022-09-21T20:55:14.299Z,100823.79
2022-09-21T20:57:42.465Z,100823.55
2022-09-21T21:00:14.398Z,100821.44
2022-09-21T21:02:43.420Z,100822.23
2022-09-21T21:05:11.621Z,100824.05
2022-09-21T21:07:45.246Z,100823.79
2022-09-21T21:10:14.877Z,100818.67
2022-09-21T21:12:43.488Z,100819.73
2022-09-21T21:15:12.814Z,100819.49
2022-09-21T21:17:42.365Z,100817.46
2022-09-21T21:20:11.107Z,100816.29
2022-09-21T21:22:39.673Z,100815.09
2022-09-21T21:25:08.805Z,100813.31
2022-09-21T21:27:37.010Z,100818.93
2022-09-21T21:30:07.118Z,100819.69
2022-09-21T21:32:35.677Z,100819.70
2022-09-21T21:35:04.774Z,100817.38
2022-09-21T21:37:32.856Z,100816.13
2022-09-21T21:40:01.648Z,100816.70
2022-09-21T21:42:29.731Z,100821.52
2022-09-21T21:44:57.734Z,100822.57
2022-09-21T21:47:39.365Z,100824.56
2022-09-21T21:50:11.327Z,100822.60
2022-09-21T21:52:39.496Z,100822.23
2022-09-21T21:55:07.985Z,100823.13
2022-09-21T21:57:36.137Z,100823.31
2022-09-21T22:00:06.286Z,100819.06
2022-09-21T22:02:34.584Z,100819.70
2022-09-21T22:05:02.633Z,100815.38
2022-09-21T22:07:30.755Z,100815.89
2022-09-21T22:09:58.782Z,100818.21
2022-09-21T22:12:26.895Z,100820.36
2022-09-21T22:14:54.913Z,100820.39
2022-09-21T22:17:23.416Z,100819.97
2022-09-21T22:19:51.651Z,100819.11
2022-09-21T22:22:19.605Z,100823.05
2022-09-21T22:24:48.297Z,100825.44
2022-09-21T22:27:16.714Z,100826.02
2022-09-21T22:29:45.245Z,100823.35
2022-09-21T22:32:13.204Z,100826.02
2022-09-21T22:34:41.330Z,100823.10
2022-09-21T22:37:09.918Z,100828.39
2022-09-21T22:39:38.077Z,100828.23
2022-09-21T22:42:06.197Z,100825.73
2022-09-21T22:44:34.219Z,100826.52
2022-09-21T22:47:02.255Z,100824.26
2022-09-21T22:49:30.257Z,100823.81
2022-09-21T22:51:58.377Z,100827.40
2022-09-21T22:54:27.796Z,100825.46
2022-09-21T22:56:55.890Z,100825.48
2022-09-21T23:12:46.958Z,100823.63
2022-09-21T23:15:16.724Z,100821.45
2022-09-21T23:17:44.370Z,100823.03
2022-09-21T23:20:11.878Z,100821.60
2022-09-21T23:22:38.749Z,100821.90
2022-09-21T23:25:06.363Z,100819.45
2022-09-21T23:27:33.353Z,100823.96
2022-09-21T23:29:59.998Z,100823.27
2022-09-21T23:32:27.350Z,100822.76
2022-09-21T23:34:54.152Z,100824.30
2022-09-21T23:37:20.810Z,100825.08
2022-09-21T23:39:48.114Z,100825.34
2022-09-21T23:42:15.033Z,100824.54
2022-09-21T23:44:41.791Z,100819.09
2022-09-21T23:47:08.664Z,100822.23
2022-09-21T23:49:35.390Z,100820.17
2022-09-21T23:52:02.478Z,100816.85
2022-09-21T23:54:29.236Z,100818.52
2022-09-21T23:56:55.938Z,100815.92
2022-09-21T23:59:23.146Z,100813.78
